Airport View

Enter AWOS ICAO identifier for current METAR.

ex. KFNL

KJYO 040515Z AUTO 17005KT 10SM SCT065 SCT070 SCT095 18/18 A3001 RMK AO2

4 Aug 2020 05:12

Frequency: 125.225

Phone: 703-777-3781

Other Area AWOS: KIAD - KGAI - KHEF - KFDK

TAF KIAD 032343Z 0400/0506 13006KT 5SM -SHRA VCTS SCT012 OVC035CB TEMPO 0401/0403 2SM +RA OVC025 FM040400 16004KT 3SM SHRA BR SCT060 OVC070 FM040800 13004KT 3SM +SHRA BR BKN015 OVC070 FM041000 03007KT 1SM +RA BR OVC008 FM041600 34015KT P6SM -SHRA OVC015 FM042100 28008KT P6SM BKN060